createdAt,value
2018-07-11T00:02:11.454Z,99.90
2018-07-11T00:04:40.037Z,99.90
2018-07-11T00:07:08.339Z,99.90
2018-07-11T00:09:36.643Z,99.90
2018-07-11T00:12:04.965Z,99.90
2018-07-11T00:14:33.256Z,99.90
2018-07-11T00:17:10.585Z,99.90
2018-07-11T00:19:38.969Z,99.90
2018-07-11T00:22:07.263Z,99.90
2018-07-11T00:24:35.595Z,99.90
2018-07-11T00:27:03.928Z,99.90
2018-07-11T00:29:32.281Z,99.90
2018-07-11T00:32:00.625Z,99.90
2018-07-11T00:34:28.965Z,99.90
2018-07-11T00:36:57.318Z,99.90
2018-07-11T00:39:25.719Z,99.90
2018-07-11T00:41:54.046Z,99.90
2018-07-11T00:44:22.392Z,99.90
2018-07-11T00:49:19.324Z,99.90
2018-07-11T00:51:47.657Z,99.90
2018-07-11T00:54:15.985Z,99.90
2018-07-11T00:56:44.370Z,99.90
2018-07-11T00:59:22.619Z,99.90
2018-07-11T01:01:51.499Z,99.90
2018-07-11T01:04:19.892Z,99.90
2018-07-11T01:06:48.240Z,99.90
2018-07-11T01:09:16.573Z,99.90
2018-07-11T01:11:45.976Z,99.90
2018-07-11T01:14:15.091Z,99.90
2018-07-11T01:16:43.383Z,99.90
2018-07-11T01:19:12.075Z,99.90
2018-07-11T01:21:40.378Z,99.90
2018-07-11T01:24:08.689Z,99.90
2018-07-11T01:26:38.248Z,99.90
2018-07-11T01:29:06.933Z,99.90
2018-07-11T01:31:35.232Z,99.90
2018-07-11T01:34:03.552Z,99.90
2018-07-11T01:36:32.322Z,99.90
2018-07-11T01:39:01.226Z,99.90
2018-07-11T01:46:32.643Z,99.90
2018-07-11T01:49:00.976Z,99.90
2018-07-11T01:51:40.520Z,99.90
2018-07-11T01:54:08.850Z,99.90
2018-07-11T01:56:37.116Z,99.90
2018-07-11T01:59:05.467Z,99.90
2018-07-11T02:01:33.756Z,99.90
2018-07-11T02:04:02.100Z,99.90
2018-07-11T02:06:30.482Z,99.90
2018-07-11T02:08:58.796Z,99.90
2018-07-11T02:11:27.108Z,99.90
2018-07-11T02:13:55.464Z,99.90
2018-07-11T02:16:23.767Z,99.90
2018-07-11T02:18:52.088Z,99.90
2018-07-11T02:21:20.396Z,99.90
2018-07-11T02:26:16.720Z,99.90
2018-07-11T02:28:45.025Z,99.90
2018-07-11T02:31:13.363Z,99.90
2018-07-11T02:33:41.720Z,99.90
2018-07-11T02:36:10.018Z,99.90
2018-07-11T02:38:38.315Z,99.90
2018-07-11T02:43:34.635Z,99.90
2018-07-11T02:46:02.959Z,99.90
2018-07-11T02:48:31.368Z,99.90
2018-07-11T02:50:59.667Z,99.90
2018-07-11T02:53:27.996Z,99.90
2018-07-11T02:55:56.340Z,99.90
2018-07-11T02:58:24.620Z,99.90
2018-07-11T03:00:52.928Z,99.90
2018-07-11T03:03:21.212Z,99.90
2018-07-11T03:05:49.518Z,99.90
2018-07-11T03:10:46.988Z,99.90
2018-07-11T03:13:18.630Z,99.90
2018-07-11T03:15:46.929Z,99.90
2018-07-11T03:18:15.274Z,99.90
2018-07-11T03:20:43.571Z,99.90
2018-07-11T03:23:11.872Z,99.90
2018-07-11T03:25:40.237Z,99.90
2018-07-11T03:28:08.512Z,99.90
2018-07-11T03:30:36.802Z,99.90
2018-07-11T03:33:05.093Z,99.90
2018-07-11T03:35:33.402Z,99.90
2018-07-11T03:40:29.747Z,99.90
2018-07-11T03:42:58.085Z,99.90
2018-07-11T03:45:26.479Z,99.90
2018-07-11T03:47:54.868Z,99.90
2018-07-11T03:50:23.183Z,99.90
2018-07-11T03:52:51.500Z,99.90
2018-07-11T03:55:19.778Z,99.90
2018-07-11T04:00:16.058Z,99.90
2018-07-11T04:02:44.356Z,99.90
2018-07-11T04:05:12.615Z,99.90
2018-07-11T04:07:40.876Z,99.90
2018-07-11T04:10:09.168Z,99.90
2018-07-11T04:12:37.466Z,99.90
2018-07-11T04:15:05.757Z,99.90
2018-07-11T04:17:34.029Z,99.90
2018-07-11T04:20:02.334Z,99.90
2018-07-11T04:22:30.600Z,99.90
2018-07-11T04:24:58.928Z,99.90
2018-07-11T04:27:27.247Z,99.90
2018-07-11T04:29:55.585Z,99.90
2018-07-11T04:32:23.926Z,99.90
2018-07-11T04:34:52.244Z,99.90
2018-07-11T04:37:20.508Z,99.90
2018-07-11T04:39:49.130Z,99.90
2018-07-11T04:42:17.434Z,99.90
2018-07-11T04:44:45.748Z,99.90
2018-07-11T04:47:14.075Z,99.90
2018-07-11T04:49:42.386Z,99.90
2018-07-11T04:54:39.041Z,99.90
2018-07-11T04:57:07.337Z,99.90
2018-07-11T05:02:03.657Z,99.90
2018-07-11T05:04:32.009Z,99.90
2018-07-11T05:07:00.278Z,99.90
2018-07-11T05:09:28.567Z,99.90
2018-07-11T05:11:56.844Z,99.90
2018-07-11T05:14:25.116Z,99.90
2018-07-11T05:19:21.420Z,99.90
2018-07-11T05:21:52.724Z,99.90
2018-07-11T05:24:21.487Z,99.90
2018-07-11T05:26:49.965Z,99.90
2018-07-11T05:29:18.256Z,99.90
2018-07-11T05:31:46.528Z,99.90
2018-07-11T05:34:14.816Z,99.90
2018-07-11T05:36:43.089Z,99.90
2018-07-11T05:39:11.355Z,99.90
2018-07-11T05:41:39.711Z,99.90
2018-07-11T05:44:07.971Z,99.90
2018-07-11T05:46:36.237Z,99.90
2018-07-11T05:49:04.923Z,99.90
2018-07-11T05:51:33.211Z,99.90
2018-07-11T05:54:01.483Z,99.90
2018-07-11T05:56:29.780Z,99.90
2018-07-11T05:58:58.057Z,99.90
2018-07-11T06:01:26.353Z,99.90
2018-07-11T06:03:54.616Z,99.90
2018-07-11T06:06:22.925Z,99.90
2018-07-11T06:08:51.204Z,99.90
2018-07-11T06:13:51.639Z,99.90
2018-07-11T06:16:19.949Z,99.90
2018-07-11T06:18:48.738Z,99.90
2018-07-11T06:21:17.016Z,99.90
2018-07-11T06:23:45.302Z,99.90
2018-07-11T06:26:13.593Z,99.90
2018-07-11T06:28:41.858Z,99.90
2018-07-11T06:31:10.145Z,99.90
2018-07-11T06:33:38.451Z,99.90
2018-07-11T06:36:06.801Z,99.90
2018-07-11T06:38:35.008Z,99.90
2018-07-11T06:41:03.300Z,99.90
2018-07-11T06:43:31.592Z,99.90
2018-07-11T06:45:59.900Z,99.90
2018-07-11T06:50:56.900Z,99.90
2018-07-11T06:53:25.309Z,99.90
2018-07-11T06:55:53.588Z,99.90
2018-07-11T07:00:49.962Z,99.90
2018-07-11T07:03:18.245Z,99.90
2018-07-11T07:05:46.539Z,99.90
2018-07-11T07:08:14.906Z,99.90
2018-07-11T07:10:43.226Z,99.90
2018-07-11T07:13:11.542Z,99.90
2018-07-11T07:15:39.822Z,99.90
2018-07-11T07:18:08.134Z,99.90
2018-07-11T07:20:36.519Z,99.90
2018-07-11T07:23:04.889Z,99.90
2018-07-11T07:25:33.181Z,99.90
2018-07-11T07:28:01.502Z,99.90
2018-07-11T07:30:29.807Z,99.90
2018-07-11T07:32:58.098Z,99.90
2018-07-11T07:35:26.371Z,99.90
2018-07-11T07:37:54.646Z,99.90
2018-07-11T07:40:22.931Z,99.90
2018-07-11T07:42:51.252Z,99.90
2018-07-11T07:47:47.589Z,99.90
2018-07-11T07:50:16.786Z,99.90
2018-07-11T07:52:45.705Z,99.90
2018-07-11T07:55:14.411Z,99.90
2018-07-11T07:57:42.817Z,99.90
2018-07-11T08:00:11.150Z,99.90
2018-07-11T08:02:39.561Z,99.90
2018-07-11T08:07:37.740Z,99.90
2018-07-11T08:10:06.948Z,99.90
2018-07-11T08:12:35.335Z,99.90
2018-07-11T08:15:03.669Z,99.90
2018-07-11T08:17:31.940Z,99.90
2018-07-11T08:20:00.212Z,99.90
2018-07-11T08:23:38.227Z,99.90
2018-07-11T08:26:17.936Z,99.90
2018-07-11T08:28:55.095Z,99.90
2018-07-11T08:35:16.643Z,99.20
2018-07-11T08:37:56.041Z,99.60
2018-07-11T08:40:38.000Z,99.90
2018-07-11T08:43:17.772Z,99.90
2018-07-11T08:48:38.483Z,99.90
2018-07-11T08:51:18.160Z,99.90
2018-07-11T08:53:56.673Z,99.90
2018-07-11T08:56:37.021Z,99.90
2018-07-11T08:59:45.942Z,99.90
2018-07-11T09:04:26.149Z,99.90
2018-07-11T09:08:24.342Z,99.90
2018-07-11T09:10:59.139Z,99.90
2018-07-11T09:13:38.267Z,99.90
2018-07-11T09:16:20.874Z,99.90
2018-07-11T09:19:00.069Z,99.90
2018-07-11T09:21:55.626Z,99.90
2018-07-11T09:24:50.837Z,99.90
2018-07-11T09:29:47.868Z,99.90
2018-07-11T09:32:16.478Z,99.90
2018-07-11T09:34:45.264Z,99.40
2018-07-11T09:37:13.648Z,99.40
2018-07-11T09:39:42.554Z,99.70
2018-07-11T09:42:10.509Z,99.50
2018-07-11T09:44:38.858Z,99.50
2018-07-11T09:47:12.575Z,99.50
2018-07-11T09:49:40.886Z,99.70
2018-07-11T09:52:09.212Z,99.40
2018-07-11T09:54:37.439Z,99.50
2018-07-11T09:57:05.746Z,98.20
2018-07-11T09:59:34.105Z,97.90
2018-07-11T10:02:02.441Z,98.00
2018-07-11T10:04:31.555Z,96.80
2018-07-11T10:06:59.827Z,96.10
2018-07-11T10:09:28.137Z,95.60
2018-07-11T10:11:56.410Z,95.20
2018-07-11T10:14:24.712Z,95.30
2018-07-11T10:16:52.994Z,94.60
2018-07-11T10:19:21.290Z,94.60
2018-07-11T10:21:49.604Z,93.70
2018-07-11T10:24:17.892Z,93.20
2018-07-11T10:26:46.219Z,93.30
2018-07-11T10:29:14.510Z,93.60
2018-07-11T10:31:42.821Z,94.20
2018-07-11T10:34:11.130Z,94.40
2018-07-11T10:36:39.447Z,95.10
2018-07-11T10:39:07.770Z,95.00
2018-07-11T10:41:36.004Z,93.50
2018-07-11T10:44:04.300Z,95.00
2018-07-11T10:46:32.577Z,92.50
2018-07-11T10:49:00.823Z,92.40
2018-07-11T10:53:57.103Z,90.70
2018-07-11T10:56:25.493Z,91.40
2018-07-11T10:58:53.811Z,91.60
2018-07-11T11:01:22.071Z,92.10
2018-07-11T11:03:50.348Z,92.70
2018-07-11T11:08:47.597Z,92.40
2018-07-11T11:13:43.900Z,92.80
2018-07-11T11:16:12.177Z,93.20
2018-07-11T11:18:40.551Z,93.40
2018-07-11T11:21:08.939Z,93.70
2018-07-11T11:23:37.296Z,94.80
2018-07-11T11:28:33.654Z,92.10
2018-07-11T11:35:58.056Z,91.20
2018-07-11T11:38:26.406Z,92.80
2018-07-11T11:40:54.700Z,92.90
2018-07-11T11:45:51.095Z,93.40
2018-07-11T11:48:19.371Z,94.20
2018-07-11T11:50:47.675Z,94.00
2018-07-11T11:55:44.065Z,92.10
2018-07-11T11:58:12.360Z,91.60
2018-07-11T12:00:40.668Z,91.50
2018-07-11T12:03:08.977Z,91.60
2018-07-11T12:05:37.250Z,91.70
2018-07-11T12:08:05.508Z,91.90
2018-07-11T12:10:33.808Z,91.60
2018-07-11T12:13:02.108Z,90.40
2018-07-11T12:15:30.371Z,90.00
2018-07-11T12:17:58.656Z,90.50
2018-07-11T12:20:27.921Z,91.00
2018-07-11T12:22:56.234Z,92.20
2018-07-11T12:25:24.561Z,92.50
2018-07-11T12:27:52.893Z,91.60
2018-07-11T12:30:21.179Z,89.10
2018-07-11T12:32:49.596Z,84.00
2018-07-11T12:37:46.115Z,86.70
2018-07-11T12:40:14.388Z,87.40
2018-07-11T12:42:42.767Z,86.50
2018-07-11T12:45:11.042Z,83.90
2018-07-11T12:47:44.720Z,83.50
2018-07-11T12:52:41.130Z,82.40
2018-07-11T12:55:09.484Z,80.80
2018-07-11T12:57:37.853Z,81.00
2018-07-11T13:00:06.305Z,76.80
2018-07-11T13:02:34.641Z,77.10
2018-07-11T13:05:03.051Z,80.80
2018-07-11T13:09:59.531Z,81.80
2018-07-11T13:12:27.833Z,82.50
2018-07-11T13:14:56.145Z,83.50
2018-07-11T13:17:24.455Z,84.50
2018-07-11T13:19:52.747Z,87.50
2018-07-11T13:22:21.118Z,89.40
2018-07-11T13:24:49.454Z,90.30
2018-07-11T13:27:17.782Z,90.80
2018-07-11T13:29:46.080Z,91.50
2018-07-11T13:32:14.482Z,91.50
2018-07-11T13:34:42.713Z,88.40
2018-07-11T13:37:11.105Z,88.60
2018-07-11T13:39:39.392Z,90.20
2018-07-11T13:42:07.673Z,88.00
2018-07-11T13:44:35.960Z,85.60
2018-07-11T13:47:08.493Z,83.30
2018-07-11T13:49:36.778Z,81.20
2018-07-11T13:54:33.116Z,80.40
2018-07-11T13:57:01.420Z,85.30
2018-07-11T13:59:29.756Z,81.60
2018-07-11T14:01:58.080Z,82.30
2018-07-11T14:04:26.376Z,82.40
2018-07-11T14:06:54.688Z,81.90
2018-07-11T14:09:22.980Z,81.70
2018-07-11T14:11:51.340Z,81.60
2018-07-11T14:14:19.673Z,82.60
2018-07-11T14:16:47.965Z,82.00
2018-07-11T14:19:16.261Z,83.80
2018-07-11T14:21:44.561Z,79.40
2018-07-11T14:26:41.777Z,75.90
2018-07-11T14:29:10.109Z,75.50
2018-07-11T14:31:38.538Z,75.00
2018-07-11T14:34:08.509Z,77.10
2018-07-11T14:36:37.117Z,77.30
2018-07-11T14:39:07.180Z,77.40
2018-07-11T14:41:35.562Z,75.10
2018-07-11T14:44:03.873Z,73.60
2018-07-11T14:46:33.557Z,74.60
2018-07-11T14:49:01.896Z,75.80
2018-07-11T14:51:30.401Z,76.60
2018-07-11T14:54:02.551Z,80.30
2018-07-11T14:56:30.898Z,79.10
2018-07-11T14:58:59.628Z,80.00
2018-07-11T15:01:27.933Z,79.60
2018-07-11T15:03:56.217Z,79.70
2018-07-11T15:08:54.213Z,75.60
2018-07-11T15:13:51.117Z,76.70
2018-07-11T15:16:19.529Z,76.80
2018-07-11T15:18:48.214Z,76.50
2018-07-11T15:21:16.892Z,76.80
2018-07-11T15:23:45.172Z,78.40
2018-07-11T15:26:15.500Z,75.70
2018-07-11T15:28:43.888Z,76.10
2018-07-11T15:31:13.532Z,76.50
2018-07-11T15:33:46.569Z,77.20
2018-07-11T15:36:15.240Z,77.60
2018-07-11T15:38:43.907Z,78.00
2018-07-11T15:41:12.202Z,78.20
2018-07-11T15:43:41.041Z,79.10
2018-07-11T15:46:09.383Z,78.60
2018-07-11T15:48:37.680Z,77.40
2018-07-11T15:51:06.064Z,78.20
2018-07-11T15:53:34.435Z,78.40
2018-07-11T15:56:02.705Z,78.80
2018-07-11T15:58:35.232Z,79.00
2018-07-11T16:01:06.174Z,78.60
2018-07-11T16:03:37.451Z,79.00
2018-07-11T16:08:35.284Z,76.10
2018-07-11T16:11:04.028Z,76.10
2018-07-11T16:16:02.615Z,76.60
2018-07-11T16:18:31.000Z,78.00
2018-07-11T16:21:00.337Z,78.70
2018-07-11T16:23:28.750Z,76.60
2018-07-11T16:25:57.104Z,75.30
2018-07-11T16:28:25.428Z,74.70
2018-07-11T16:30:53.702Z,75.30
2018-07-11T16:33:22.035Z,76.20
2018-07-11T16:35:50.355Z,76.90
2018-07-11T16:38:18.615Z,76.40
2018-07-11T16:40:46.977Z,75.00
2018-07-11T16:43:15.312Z,74.10
2018-07-11T16:45:43.658Z,72.70
2018-07-11T16:48:11.921Z,72.70
2018-07-11T16:50:40.237Z,72.40
2018-07-11T16:53:08.606Z,74.10
2018-07-11T16:55:36.949Z,75.00
2018-07-11T17:00:34.359Z,74.20
2018-07-11T17:03:13.352Z,76.00
2018-07-11T17:05:54.025Z,76.30
2018-07-11T17:08:27.787Z,76.60
2018-07-11T17:13:25.242Z,71.70
2018-07-11T17:15:54.005Z,70.70
2018-07-11T17:18:28.235Z,69.40
2018-07-11T17:20:58.405Z,65.60
2018-07-11T17:23:26.768Z,62.60
2018-07-11T17:25:55.101Z,62.30
2018-07-11T17:28:23.435Z,61.50
2018-07-11T17:30:51.820Z,60.40
2018-07-11T17:33:20.173Z,60.10
2018-07-11T17:35:50.993Z,59.30
2018-07-11T17:38:27.350Z,59.00
2018-07-11T17:40:56.458Z,59.50
2018-07-11T17:43:32.808Z,59.80
2018-07-11T17:46:01.853Z,58.90
2018-07-11T17:48:40.872Z,58.80
2018-07-11T17:52:13.175Z,58.90
2018-07-11T17:55:19.640Z,59.40
2018-07-11T17:57:52.610Z,58.80
2018-07-11T18:00:30.078Z,59.50
2018-07-11T18:03:24.102Z,59.50
2018-07-11T18:07:08.021Z,58.80
2018-07-11T18:10:08.619Z,58.60
2018-07-11T18:12:49.764Z,59.70
2018-07-11T18:15:26.556Z,60.60
2018-07-11T18:18:11.465Z,61.50
2018-07-11T18:23:27.903Z,63.10
2018-07-11T18:26:37.372Z,64.70
2018-07-11T18:31:24.284Z,66.10
2018-07-11T18:34:03.904Z,67.80
2018-07-11T18:36:40.395Z,69.60
2018-07-11T18:39:20.126Z,70.40
2018-07-11T18:41:56.348Z,70.80
2018-07-11T18:45:01.155Z,71.60
2018-07-11T18:47:39.150Z,72.40
2018-07-11T18:52:26.124Z,72.90
2018-07-11T18:55:01.286Z,74.00
2018-07-11T18:57:55.365Z,75.80
2018-07-11T19:00:40.393Z,77.50
2018-07-11T19:03:37.950Z,79.50
2018-07-11T19:07:16.127Z,82.80
2018-07-11T19:12:24.606Z,86.70
2018-07-11T19:15:05.387Z,87.80
2018-07-11T19:17:44.953Z,89.40
2018-07-11T19:20:22.782Z,90.60
2018-07-11T19:27:21.204Z,91.90
2018-07-11T19:29:58.480Z,93.50
2018-07-11T19:34:39.147Z,96.70
2018-07-11T19:38:45.223Z,97.50
2018-07-11T19:41:18.934Z,98.40
2018-07-11T19:46:03.946Z,99.10
2018-07-11T19:48:43.470Z,99.60
2018-07-11T19:53:56.080Z,99.90
2018-07-11T19:56:34.914Z,99.90
2018-07-11T19:59:03.201Z,99.90
2018-07-11T20:01:31.537Z,99.90
2018-07-11T20:04:00.019Z,99.90
2018-07-11T20:06:28.474Z,99.90
2018-07-11T20:08:56.832Z,99.90
2018-07-11T20:11:25.167Z,99.90
2018-07-11T20:13:54.393Z,99.90
2018-07-11T20:16:23.414Z,99.90
2018-07-11T20:18:53.387Z,99.90
2018-07-11T20:21:22.572Z,99.90
2018-07-11T20:23:51.208Z,99.90
2018-07-11T20:26:20.324Z,99.90
2018-07-11T20:28:48.752Z,99.90
2018-07-11T20:31:17.213Z,99.90
2018-07-11T20:38:42.524Z,99.90
2018-07-11T20:41:10.901Z,99.90
2018-07-11T20:43:39.508Z,99.90
2018-07-11T20:46:08.511Z,99.90
2018-07-11T20:48:37.868Z,99.90
2018-07-11T20:51:06.654Z,99.90
2018-07-11T20:56:03.000Z,99.90
2018-07-11T20:58:42.664Z,99.90
2018-07-11T21:01:22.331Z,99.90
2018-07-11T21:06:03.807Z,99.90
2018-07-11T21:12:15.830Z,99.90
2018-07-11T21:14:56.081Z,99.90
2018-07-11T21:17:42.272Z,99.90
2018-07-11T21:20:10.615Z,99.90
2018-07-11T21:22:38.988Z,99.90
2018-07-11T21:25:07.261Z,99.90
2018-07-11T21:27:35.566Z,99.90
2018-07-11T21:30:03.973Z,99.90
2018-07-11T21:32:32.293Z,99.90
2018-07-11T21:35:00.606Z,99.90
2018-07-11T21:37:28.891Z,99.90
2018-07-11T21:39:57.213Z,99.90
2018-07-11T21:42:25.544Z,99.90
2018-07-11T21:44:53.898Z,99.90
2018-07-11T21:47:22.195Z,99.90
2018-07-11T21:49:50.480Z,99.90
2018-07-11T21:52:18.789Z,99.90
2018-07-11T21:54:47.121Z,99.90
2018-07-11T21:57:15.399Z,99.90
2018-07-11T21:59:43.729Z,99.90
2018-07-11T22:02:12.027Z,99.90
2018-07-11T22:04:40.330Z,99.90
2018-07-11T22:07:08.623Z,99.90
2018-07-11T22:09:36.934Z,99.90
2018-07-11T22:14:33.260Z,99.90
2018-07-11T22:17:11.730Z,99.90
2018-07-11T22:19:38.982Z,99.90
2018-07-11T22:22:06.216Z,99.90
2018-07-11T22:24:33.473Z,99.90
2018-07-11T22:27:00.722Z,99.90
2018-07-11T22:29:27.960Z,99.90
2018-07-11T22:31:55.193Z,99.90
2018-07-11T22:34:22.448Z,99.90
2018-07-11T22:36:49.713Z,99.90
2018-07-11T22:39:16.955Z,99.90
2018-07-11T22:41:44.225Z,99.90
2018-07-11T22:44:11.476Z,99.90
2018-07-11T22:46:38.744Z,99.90
2018-07-11T22:49:05.988Z,99.90
2018-07-11T22:51:33.220Z,99.90
2018-07-11T22:54:00.480Z,99.90
2018-07-11T22:56:27.707Z,99.90
2018-07-11T23:01:22.453Z,99.90
2018-07-11T23:03:49.699Z,99.90
2018-07-11T23:06:16.923Z,99.90
2018-07-11T23:08:44.705Z,99.90
2018-07-11T23:11:11.988Z,99.90
2018-07-11T23:13:39.266Z,99.90
2018-07-11T23:16:06.494Z,99.90
2018-07-11T23:18:33.747Z,99.90
2018-07-11T23:23:28.478Z,99.90
2018-07-11T23:25:55.819Z,99.90
2018-07-11T23:28:23.054Z,99.90
2018-07-11T23:30:50.301Z,99.90
2018-07-11T23:35:45.046Z,99.90
2018-07-11T23:38:12.302Z,99.90
2018-07-11T23:40:39.561Z,99.90
2018-07-11T23:43:06.816Z,99.90
2018-07-11T23:45:34.068Z,99.90
2018-07-11T23:48:01.305Z,99.90
2018-07-11T23:50:28.589Z,99.90
2018-07-11T23:52:55.812Z,99.90
2018-07-11T23:55:23.039Z,99.90
